createdAt,value
2022-09-22T00:00:48.412Z,1013.71
2022-09-22T00:01:48.405Z,1013.73
2022-09-22T00:02:48.396Z,1013.72
2022-09-22T00:03:48.381Z,1013.66
2022-09-22T00:04:48.406Z,1013.72
2022-09-22T00:05:48.361Z,1013.65
2022-09-22T00:06:48.349Z,1013.65
2022-09-22T00:07:48.338Z,1013.69
2022-09-22T00:08:48.325Z,1013.66
2022-09-22T00:09:48.320Z,1013.66
2022-09-22T00:10:48.309Z,1013.64
2022-09-22T00:11:48.313Z,1013.67
2022-09-22T00:12:48.284Z,1013.65
2022-09-22T00:13:48.275Z,1013.61
2022-09-22T00:14:48.268Z,1013.64
2022-09-22T00:15:48.256Z,1013.65
2022-09-22T00:16:48.244Z,1013.65
2022-09-22T00:17:48.244Z,1013.62
2022-09-22T00:18:48.225Z,1013.66
2022-09-22T00:19:48.212Z,1013.62
2022-09-22T00:20:48.207Z,1013.63
2022-09-22T00:21:48.194Z,1013.65
2022-09-22T00:22:48.206Z,1013.66
2022-09-22T00:23:48.169Z,1013.63
2022-09-22T00:24:48.166Z,1013.67
2022-09-22T00:25:48.144Z,1013.62
2022-09-22T00:26:48.135Z,1013.59
2022-09-22T00:27:48.128Z,1013.61
2022-09-22T00:28:48.116Z,1013.61
2022-09-22T00:29:48.103Z,1013.59
2022-09-22T00:30:48.094Z,1013.62
2022-09-22T00:31:48.106Z,1013.58
2022-09-22T00:32:48.102Z,1013.57
2022-09-22T00:33:48.068Z,1013.65
2022-09-22T00:34:48.071Z,1013.56
2022-09-22T00:35:48.041Z,1013.55
2022-09-22T00:36:48.032Z,1013.6
2022-09-22T00:37:48.020Z,1013.51
2022-09-22T00:38:48.012Z,1013.55
2022-09-22T00:39:48.004Z,1013.58
2022-09-22T00:40:47.983Z,1013.56
2022-09-22T00:41:47.975Z,1013.59
2022-09-22T00:42:47.964Z,1013.61
2022-09-22T00:43:47.961Z,1013.59
2022-09-22T00:44:47.943Z,1013.61
2022-09-22T00:45:47.934Z,1013.57
2022-09-22T00:46:47.924Z,1013.53
2022-09-22T00:47:47.909Z,1013.54
2022-09-22T00:48:47.900Z,1013.58
2022-09-22T00:49:47.892Z,1013.58
2022-09-22T00:50:47.881Z,1013.57
2022-09-22T00:51:47.867Z,1013.55
2022-09-22T00:52:47.865Z,1013.46
2022-09-22T00:53:47.845Z,1013.49
2022-09-22T00:54:47.834Z,1013.51
2022-09-22T00:55:47.827Z,1013.5
2022-09-22T00:56:47.813Z,1013.47
2022-09-22T00:57:47.803Z,1013.45
2022-09-22T00:58:47.797Z,1013.46
2022-09-22T00:59:47.787Z,1013.42
2022-09-22T01:00:47.780Z,1013.46
2022-09-22T01:01:47.765Z,1013.47
2022-09-22T01:02:47.756Z,1013.46
2022-09-22T01:03:47.750Z,1013.39
2022-09-22T01:04:47.726Z,1013.41
2022-09-22T01:05:47.714Z,1013.38
2022-09-22T01:06:47.709Z,1013.39
2022-09-22T01:07:47.700Z,1013.39
2022-09-22T01:08:47.685Z,1013.42
2022-09-22T01:09:47.676Z,1013.39
2022-09-22T01:10:47.667Z,1013.39
2022-09-22T01:11:47.653Z,1013.45
2022-09-22T01:12:47.643Z,1013.35
2022-09-22T01:13:47.634Z,1013.44
2022-09-22T01:14:47.624Z,1013.43
2022-09-22T01:15:47.617Z,1013.45
2022-09-22T01:16:47.602Z,1013.41
2022-09-22T01:17:47.595Z,1013.46
2022-09-22T01:18:47.580Z,1013.47
2022-09-22T01:19:47.576Z,1013.41
2022-09-22T01:20:47.560Z,1013.43
2022-09-22T01:21:47.553Z,1013.41
2022-09-22T01:22:47.536Z,1013.39
2022-09-22T01:23:47.528Z,1013.41
2022-09-22T01:24:47.515Z,1013.36
2022-09-22T01:25:47.510Z,1013.36
2022-09-22T01:26:47.502Z,1013.33
2022-09-22T01:27:47.492Z,1013.34
2022-09-22T01:28:47.473Z,1013.34
2022-09-22T01:29:47.470Z,1013.34
2022-09-22T01:30:47.451Z,1013.35
2022-09-22T01:31:47.438Z,1013.33
2022-09-22T01:32:47.435Z,1013.26
2022-09-22T01:33:47.432Z,1013.3
2022-09-22T01:34:47.408Z,1013.35
2022-09-22T01:35:47.397Z,1013.3
2022-09-22T01:36:47.392Z,1013.37
2022-09-22T01:37:47.376Z,1013.33
2022-09-22T01:38:47.364Z,1013.35
2022-09-22T01:39:47.358Z,1013.39
2022-09-22T01:40:47.346Z,1013.32
2022-09-22T01:41:47.331Z,1013.28
2022-09-22T01:42:47.322Z,1013.27
2022-09-22T01:43:47.314Z,1013.32
2022-09-22T01:44:47.306Z,1013.3
2022-09-22T01:45:47.288Z,1013.3
2022-09-22T01:46:47.282Z,1013.26
2022-09-22T01:47:47.272Z,1013.29
2022-09-22T01:48:47.264Z,1013.3
2022-09-22T01:49:47.246Z,1013.24
2022-09-22T01:50:47.234Z,1013.23
2022-09-22T01:51:47.227Z,1013.28
2022-09-22T01:52:47.213Z,1013.27
2022-09-22T01:53:47.205Z,1013.26
2022-09-22T01:54:47.192Z,1013.25
2022-09-22T01:55:47.184Z,1013.24
2022-09-22T01:56:47.178Z,1013.23
2022-09-22T01:57:47.159Z,1013.25
2022-09-22T01:58:47.152Z,1013.24
2022-09-22T01:59:47.142Z,1013.25
2022-09-22T02:00:47.129Z,1013.22
2022-09-22T02:01:47.118Z,1013.21
2022-09-22T02:02:47.112Z,1013.23
2022-09-22T02:03:47.098Z,1013.22
2022-09-22T02:04:47.086Z,1013.21
2022-09-22T02:05:47.079Z,1013.21
2022-09-22T02:06:47.068Z,1013.24
2022-09-22T02:07:47.055Z,1013.21
2022-09-22T02:08:47.040Z,1013.2
2022-09-22T02:09:47.034Z,1013.17
2022-09-22T02:10:47.021Z,1013.17
2022-09-22T02:11:47.012Z,1013.16
2022-09-22T02:12:47.003Z,1013.13
2022-09-22T02:13:46.994Z,1013.16
2022-09-22T02:14:46.995Z,1013.14
2022-09-22T02:15:46.969Z,1013.07
2022-09-22T02:16:46.958Z,1013.07
2022-09-22T02:17:46.948Z,1013.04
2022-09-22T02:18:46.953Z,1013.06
2022-09-22T02:19:46.931Z,1013.07
2022-09-22T02:20:46.915Z,1013.09
2022-09-22T02:21:46.907Z,1013.12
2022-09-22T02:22:46.895Z,1013.06
2022-09-22T02:23:46.885Z,1013.09
2022-09-22T02:24:46.888Z,1013.08
2022-09-22T02:25:46.869Z,1013.06
2022-09-22T02:26:46.848Z,1013.09
2022-09-22T02:27:46.838Z,1013.05
2022-09-22T02:28:46.831Z,1013.06
2022-09-22T02:29:46.821Z,1013.09
2022-09-22T02:30:46.804Z,1013.06
2022-09-22T02:31:46.795Z,1013
2022-09-22T02:32:46.786Z,1012.97
2022-09-22T02:33:46.772Z,1012.98
2022-09-22T02:34:46.761Z,1012.98
2022-09-22T02:35:46.753Z,1012.97
2022-09-22T02:36:46.741Z,1013
2022-09-22T02:37:46.732Z,1012.97
2022-09-22T02:38:46.724Z,1013
2022-09-22T02:39:46.708Z,1012.96
2022-09-22T02:40:46.700Z,1012.94
2022-09-22T02:41:46.690Z,1012.96
2022-09-22T02:42:46.677Z,1012.89
2022-09-22T02:43:46.672Z,1012.93
2022-09-22T02:44:46.653Z,1012.92
2022-09-22T02:45:46.643Z,1012.89
2022-09-22T02:46:46.629Z,1012.86
2022-09-22T02:47:46.621Z,1012.86
2022-09-22T02:48:46.613Z,1012.86
2022-09-22T02:49:46.599Z,1012.9
2022-09-22T02:50:46.587Z,1012.88
2022-09-22T02:51:46.577Z,1012.86
2022-09-22T02:52:46.570Z,1012.87
2022-09-22T02:53:46.556Z,1012.92
2022-09-22T02:54:46.551Z,1012.88
2022-09-22T02:55:46.538Z,1012.87
2022-09-22T02:56:46.524Z,1012.86
2022-09-22T02:57:46.514Z,1012.86
2022-09-22T02:58:46.505Z,1012.85
2022-09-22T02:59:46.495Z,1012.85
2022-09-22T03:00:46.480Z,1012.82
2022-09-22T03:01:46.473Z,1012.8
2022-09-22T03:02:46.465Z,1012.78
2022-09-22T03:03:46.453Z,1012.81
2022-09-22T03:04:46.443Z,1012.86
2022-09-22T03:05:46.437Z,1012.77
2022-09-22T03:06:46.418Z,1012.86
2022-09-22T03:07:46.409Z,1012.82
2022-09-22T03:08:46.395Z,1012.78
2022-09-22T03:09:46.382Z,1012.79
2022-09-22T03:10:46.376Z,1012.75
2022-09-22T03:11:46.363Z,1012.77
2022-09-22T03:12:46.353Z,1012.75
2022-09-22T03:13:46.349Z,1012.72
2022-09-22T03:14:46.332Z,1012.77
2022-09-22T03:15:46.321Z,1012.72
2022-09-22T03:16:46.311Z,1012.73
2022-09-22T03:17:46.303Z,1012.76
2022-09-22T03:18:46.315Z,1012.68
2022-09-22T03:19:46.277Z,1012.72
2022-09-22T03:20:46.264Z,1012.77
2022-09-22T03:21:46.256Z,1012.73
2022-09-22T03:22:46.245Z,1012.74
2022-09-22T03:23:46.242Z,1012.69
2022-09-22T03:24:46.222Z,1012.71
2022-09-22T03:25:46.211Z,1012.7
2022-09-22T03:26:46.204Z,1012.71
2022-09-22T03:27:46.191Z,1012.7
2022-09-22T03:28:46.184Z,1012.72
2022-09-22T03:29:46.169Z,1012.65
2022-09-22T03:30:46.161Z,1012.71
2022-09-22T03:31:46.146Z,1012.71
2022-09-22T03:32:46.139Z,1012.65
2022-09-22T03:33:46.136Z,1012.66
2022-09-22T03:34:46.117Z,1012.6
2022-09-22T03:35:46.107Z,1012.63
2022-09-22T03:36:46.096Z,1012.69
2022-09-22T03:37:46.088Z,1012.61
2022-09-22T03:38:46.075Z,1012.61
2022-09-22T03:39:46.062Z,1012.61
2022-09-22T03:40:46.052Z,1012.66
2022-09-22T03:41:46.043Z,1012.57
2022-09-22T03:42:46.035Z,1012.59
2022-09-22T03:43:46.024Z,1012.54
2022-09-22T03:44:46.011Z,1012.52
2022-09-22T03:45:45.998Z,1012.61
2022-09-22T03:46:45.990Z,1012.58
2022-09-22T03:47:45.981Z,1012.53
2022-09-22T03:48:45.968Z,1012.58
2022-09-22T03:49:45.974Z,1012.55
2022-09-22T03:50:45.946Z,1012.52
2022-09-22T03:51:45.949Z,1012.55
2022-09-22T03:52:45.924Z,1012.61
2022-09-22T03:53:45.909Z,1012.59
2022-09-22T03:54:45.907Z,1012.59
2022-09-22T03:55:45.892Z,1012.63
2022-09-22T03:56:45.877Z,1012.63
2022-09-22T03:57:45.870Z,1012.59
2022-09-22T03:58:45.858Z,1012.59
2022-09-22T03:59:45.844Z,1012.62
2022-09-22T04:00:45.838Z,1012.65
2022-09-22T04:01:45.829Z,1012.68
2022-09-22T04:02:45.815Z,1012.61
2022-09-22T04:03:45.804Z,1012.65
2022-09-22T04:04:45.798Z,1012.62
2022-09-22T04:05:45.781Z,1012.63
2022-09-22T04:06:45.772Z,1012.62
2022-09-22T04:07:45.763Z,1012.54
2022-09-22T04:08:45.750Z,1012.58
2022-09-22T04:09:45.740Z,1012.53
2022-09-22T04:10:45.730Z,1012.51
2022-09-22T04:11:45.725Z,1012.53
2022-09-22T04:12:45.710Z,1012.52
2022-09-22T04:13:45.697Z,1012.57
2022-09-22T04:14:45.698Z,1012.51
2022-09-22T04:15:45.685Z,1012.52
2022-09-22T04:16:45.663Z,1012.56
2022-09-22T04:17:45.669Z,1012.55
2022-09-22T04:18:45.646Z,1012.56
2022-09-22T04:19:45.633Z,1012.53
2022-09-22T04:20:45.625Z,1012.48
2022-09-22T04:21:45.614Z,1012.48
2022-09-22T04:22:45.601Z,1012.49
2022-09-22T04:23:45.588Z,1012.48
2022-09-22T04:24:45.591Z,1012.47
2022-09-22T04:25:45.589Z,1012.5
2022-09-22T04:26:45.565Z,1012.47
2022-09-22T04:27:45.575Z,1012.46
2022-09-22T04:28:45.602Z,1012.45
2022-09-22T04:29:45.527Z,1012.47
2022-09-22T04:30:45.516Z,1012.45
2022-09-22T04:31:45.504Z,1012.45
2022-09-22T04:32:45.496Z,1012.46
2022-09-22T04:33:45.484Z,1012.45
2022-09-22T04:34:45.470Z,1012.45
2022-09-22T04:35:45.464Z,1012.51
2022-09-22T04:36:45.449Z,1012.43
2022-09-22T04:37:45.466Z,1012.46
2022-09-22T04:38:45.430Z,1012.45
2022-09-22T04:39:45.417Z,1012.44
2022-09-22T04:40:45.405Z,1012.4
2022-09-22T04:41:45.400Z,1012.41
2022-09-22T04:42:45.387Z,1012.44
2022-09-22T04:43:45.381Z,1012.39
2022-09-22T04:44:45.367Z,1012.38
2022-09-22T04:45:45.354Z,1012.42
2022-09-22T04:46:45.343Z,1012.43
2022-09-22T04:47:45.338Z,1012.33
2022-09-22T04:48:45.323Z,1012.4
2022-09-22T04:49:45.308Z,1012.38
2022-09-22T04:50:45.303Z,1012.4
2022-09-22T04:51:45.290Z,1012.38
2022-09-22T04:52:45.278Z,1012.4
2022-09-22T04:53:45.269Z,1012.39
2022-09-22T04:54:45.262Z,1012.43
2022-09-22T04:55:45.255Z,1012.4
2022-09-22T04:56:45.235Z,1012.4
2022-09-22T04:57:45.250Z,1012.43
2022-09-22T04:58:45.216Z,1012.32
2022-09-22T04:59:45.203Z,1012.39
2022-09-22T05:00:45.196Z,1012.33
2022-09-22T05:01:45.182Z,1012.31
2022-09-22T05:02:45.172Z,1012.31
2022-09-22T05:03:45.192Z,1012.42
2022-09-22T05:04:45.153Z,1012.42
2022-09-22T05:05:45.165Z,1012.37
2022-09-22T05:06:45.132Z,1012.32
2022-09-22T05:07:45.120Z,1012.31
2022-09-22T05:08:45.107Z,1012.33
2022-09-22T05:09:45.095Z,1012.44
2022-09-22T05:10:45.089Z,1012.39
2022-09-22T05:11:45.081Z,1012.39
2022-09-22T05:12:45.066Z,1012.4
2022-09-22T05:13:45.062Z,1012.34
2022-09-22T05:14:45.040Z,1012.38
2022-09-22T05:15:45.033Z,1012.47
2022-09-22T05:16:45.019Z,1012.48
2022-09-22T05:17:45.008Z,1012.44
2022-09-22T05:18:45.004Z,1012.45
2022-09-22T05:19:44.987Z,1012.44
2022-09-22T05:20:44.982Z,1012.48
2022-09-22T05:21:44.969Z,1012.55
2022-09-22T05:22:44.999Z,1012.49
2022-09-22T05:23:44.959Z,1012.52
2022-09-22T05:24:44.937Z,1012.46
2022-09-22T05:25:44.925Z,1012.51
2022-09-22T05:26:44.919Z,1012.53
2022-09-22T05:27:44.925Z,1012.53
2022-09-22T05:28:44.893Z,1012.51
2022-09-22T05:29:44.882Z,1012.55
2022-09-22T05:30:44.879Z,1012.49
2022-09-22T05:31:44.875Z,1012.55
2022-09-22T05:32:44.847Z,1012.62
2022-09-22T05:33:44.846Z,1012.54
2022-09-22T05:34:44.831Z,1012.55
2022-09-22T05:35:44.819Z,1012.56
2022-09-22T05:36:44.808Z,1012.56
2022-09-22T05:37:44.793Z,1012.56
2022-09-22T05:38:44.783Z,1012.58
2022-09-22T05:39:44.776Z,1012.59
2022-09-22T05:40:44.766Z,1012.56
2022-09-22T05:41:44.754Z,1012.53
2022-09-22T05:42:44.740Z,1012.48
2022-09-22T05:43:44.729Z,1012.52
2022-09-22T05:44:44.728Z,1012.51
2022-09-22T05:45:44.716Z,1012.53
2022-09-22T05:46:44.700Z,1012.55
2022-09-22T05:47:44.687Z,1012.5
2022-09-22T05:48:44.683Z,1012.54
2022-09-22T05:49:44.671Z,1012.53
2022-09-22T05:50:44.657Z,1012.53
2022-09-22T05:51:44.647Z,1012.53
2022-09-22T05:52:44.638Z,1012.5
2022-09-22T05:53:44.640Z,1012.48
2022-09-22T05:54:44.613Z,1012.53
2022-09-22T05:55:44.605Z,1012.56
2022-09-22T05:56:44.597Z,1012.58
2022-09-22T05:57:44.579Z,1012.61
2022-09-22T05:58:44.572Z,1012.6
2022-09-22T05:59:44.570Z,1012.57
2022-09-22T06:00:44.549Z,1012.57
2022-09-22T06:01:44.537Z,1012.56
2022-09-22T06:02:44.527Z,1012.57
2022-09-22T06:03:44.533Z,1012.57
2022-09-22T06:04:44.511Z,1012.57
2022-09-22T06:05:44.499Z,1012.61
2022-09-22T06:06:44.482Z,1012.59
2022-09-22T06:07:44.473Z,1012.53
2022-09-22T06:08:44.465Z,1012.56
2022-09-22T06:09:44.449Z,1012.57
2022-09-22T06:10:44.443Z,1012.53
2022-09-22T06:11:44.427Z,1012.59
2022-09-22T06:12:44.418Z,1012.57
2022-09-22T06:13:44.409Z,1012.58
2022-09-22T06:14:44.400Z,1012.57
2022-09-22T06:15:44.390Z,1012.63
2022-09-22T06:16:44.373Z,1012.59
2022-09-22T06:17:44.370Z,1012.62
2022-09-22T06:18:44.354Z,1012.57
2022-09-22T06:19:44.342Z,1012.62
2022-09-22T06:20:44.339Z,1012.61
2022-09-22T06:21:44.319Z,1012.61
2022-09-22T06:22:44.326Z,1012.57
2022-09-22T06:23:44.304Z,1012.58
2022-09-22T06:24:44.285Z,1012.55
2022-09-22T06:25:44.276Z,1012.5
2022-09-22T06:26:44.279Z,1012.55
2022-09-22T06:27:44.280Z,1012.55
2022-09-22T06:28:44.248Z,1012.57
2022-09-22T06:29:44.237Z,1012.55
2022-09-22T06:30:44.240Z,1012.55
2022-09-22T06:31:44.216Z,1012.57
2022-09-22T06:32:44.209Z,1012.6
2022-09-22T06:33:44.201Z,1012.62
2022-09-22T06:34:44.180Z,1012.6
2022-09-22T06:35:44.196Z,1012.56
2022-09-22T06:36:44.168Z,1012.56
2022-09-22T06:37:44.156Z,1012.51
2022-09-22T06:38:44.141Z,1012.53
2022-09-22T06:39:44.135Z,1012.54
2022-09-22T06:40:44.118Z,1012.55
2022-09-22T06:41:44.108Z,1012.6
2022-09-22T06:42:44.096Z,1012.53
2022-09-22T06:43:44.092Z,1012.57
2022-09-22T06:44:44.116Z,1012.59
2022-09-22T06:45:44.075Z,1012.52
2022-09-22T06:46:44.053Z,1012.57
2022-09-22T06:47:44.048Z,1012.54
2022-09-22T06:48:44.039Z,1012.53
2022-09-22T06:49:44.028Z,1012.52
2022-09-22T06:50:44.014Z,1012.56
2022-09-22T06:51:44.006Z,1012.56
2022-09-22T06:52:43.996Z,1012.53
2022-09-22T06:53:43.982Z,1012.52
2022-09-22T06:54:43.972Z,1012.56
2022-09-22T06:55:43.972Z,1012.47
2022-09-22T06:56:43.952Z,1012.51
2022-09-22T06:57:43.947Z,1012.52
2022-09-22T06:58:43.933Z,1012.53
2022-09-22T06:59:43.916Z,1012.51
2022-09-22T07:00:43.919Z,1012.51
2022-09-22T07:01:43.898Z,1012.44
2022-09-22T07:02:43.890Z,1012.47
2022-09-22T07:03:43.914Z,1012.48
2022-09-22T07:04:43.863Z,1012.44
2022-09-22T07:05:43.857Z,1012.42
2022-09-22T07:06:43.842Z,1012.43
2022-09-22T07:07:43.833Z,1012.43
2022-09-22T07:08:43.836Z,1012.45
2022-09-22T07:09:43.816Z,1012.5
2022-09-22T07:10:43.802Z,1012.44
2022-09-22T07:11:43.793Z,1012.46
2022-09-22T07:12:43.778Z,1012.46
2022-09-22T07:13:43.772Z,1012.53
2022-09-22T07:14:43.759Z,1012.49
2022-09-22T07:15:43.765Z,1012.4
2022-09-22T07:16:43.737Z,1012.47
2022-09-22T07:17:43.727Z,1012.47
2022-09-22T07:18:43.713Z,1012.41
2022-09-22T07:19:43.710Z,1012.4
2022-09-22T07:20:43.697Z,1012.45
2022-09-22T07:21:43.682Z,1012.46
2022-09-22T07:22:43.671Z,1012.43
2022-09-22T07:23:43.661Z,1012.47
2022-09-22T07:24:43.650Z,1012.43
2022-09-22T07:25:43.637Z,1012.36
2022-09-22T07:26:43.627Z,1012.39
2022-09-22T07:27:43.619Z,1012.4
2022-09-22T07:28:43.607Z,1012.33
2022-09-22T07:29:43.592Z,1012.37
2022-09-22T07:30:43.582Z,1012.46
2022-09-22T07:31:43.595Z,1012.4
2022-09-22T07:32:43.563Z,1012.39
2022-09-22T07:33:43.550Z,1012.37
2022-09-22T07:34:43.543Z,1012.4
2022-09-22T07:35:43.534Z,1012.39
2022-09-22T07:36:43.521Z,1012.36
2022-09-22T07:37:43.519Z,1012.36
2022-09-22T07:38:43.501Z,1012.37
2022-09-22T07:39:43.487Z,1012.46
2022-09-22T07:40:43.489Z,1012.34
2022-09-22T07:41:43.470Z,1012.37
2022-09-22T07:42:43.456Z,1012.34
2022-09-22T07:43:43.460Z,1012.41
2022-09-22T07:44:43.459Z,1012.27
2022-09-22T07:45:43.428Z,1012.36
2022-09-22T07:46:43.417Z,1012.28
2022-09-22T07:47:43.398Z,1012.33
2022-09-22T07:48:43.390Z,1012.36
2022-09-22T07:49:43.380Z,1012.3
2022-09-22T07:50:43.367Z,1012.35
2022-09-22T07:51:43.359Z,1012.28
2022-09-22T07:52:43.352Z,1012.29
2022-09-22T07:53:43.359Z,1012.26
2022-09-22T07:54:43.330Z,1012.31
2022-09-22T07:55:43.311Z,1012.33
2022-09-22T07:56:43.298Z,1012.37
2022-09-22T07:57:43.322Z,1012.34
2022-09-22T07:58:43.282Z,1012.29
2022-09-22T07:59:43.267Z,1012.31
2022-09-22T08:00:43.260Z,1012.32
2022-09-22T08:01:43.248Z,1012.32
2022-09-22T08:02:43.232Z,1012.29
2022-09-22T08:03:43.233Z,1012.34
2022-09-22T08:04:43.216Z,1012.34
2022-09-22T08:05:43.203Z,1012.32
2022-09-22T08:06:43.205Z,1012.34
2022-09-22T08:07:43.184Z,1012.33
2022-09-22T08:08:43.172Z,1012.28
2022-09-22T08:09:43.173Z,1012.31
2022-09-22T08:10:43.148Z,1012.29
2022-09-22T08:11:43.141Z,1012.29
2022-09-22T08:12:43.131Z,1012.35
2022-09-22T08:13:43.118Z,1012.31
2022-09-22T08:14:43.106Z,1012.36
2022-09-22T08:15:43.110Z,1012.39
2022-09-22T08:16:43.091Z,1012.39
2022-09-22T08:17:43.074Z,1012.39
2022-09-22T08:18:43.066Z,1012.37
2022-09-22T08:19:43.053Z,1012.33
2022-09-22T08:20:43.080Z,1012.37
2022-09-22T08:21:44.612Z,1012.42
2022-09-22T08:22:43.033Z,1012.36
2022-09-22T08:23:43.008Z,1012.41
2022-09-22T08:24:43.032Z,1012.31
2022-09-22T08:25:42.999Z,1012.32
2022-09-22T08:26:43.019Z,1012.34
2022-09-22T08:27:42.968Z,1012.31
2022-09-22T08:28:42.954Z,1012.3
2022-09-22T08:29:42.948Z,1012.34
2022-09-22T08:30:42.931Z,1012.28
2022-09-22T08:31:42.922Z,1012.31
2022-09-22T08:32:42.917Z,1012.29
2022-09-22T08:33:42.905Z,1012.29
2022-09-22T08:34:42.892Z,1012.35
2022-09-22T08:35:42.880Z,1012.28
2022-09-22T08:36:42.870Z,1012.25
2022-09-22T08:37:42.856Z,1012.16
2022-09-22T08:38:42.849Z,1012.15
2022-09-22T08:39:42.847Z,1012.1
2022-09-22T08:40:42.824Z,1012.09
2022-09-22T08:41:42.827Z,1012.14
2022-09-22T08:42:42.828Z,1012.21
2022-09-22T08:43:42.791Z,1012.16
2022-09-22T08:44:42.787Z,1012.16
2022-09-22T08:45:42.775Z,1012.2
2022-09-22T08:46:42.762Z,1012.23
2022-09-22T08:47:42.776Z,1012.22
2022-09-22T08:48:42.754Z,1012.2
2022-09-22T08:49:42.734Z,1012.22
2022-09-22T08:50:42.721Z,1012.3
2022-09-22T08:51:42.711Z,1012.26
2022-09-22T08:52:42.697Z,1012.28
2022-09-22T08:53:42.699Z,1012.3
2022-09-22T08:54:42.675Z,1012.27
2022-09-22T08:55:42.671Z,1012.25
2022-09-22T08:56:42.727Z,1012.22
2022-09-22T08:57:42.642Z,1012.24
2022-09-22T08:58:42.639Z,1012.2
2022-09-22T08:59:42.628Z,1012.27
2022-09-22T09:00:42.610Z,1012.25
2022-09-22T09:01:42.601Z,1012.29
2022-09-22T09:02:42.605Z,1012.3
2022-09-22T09:03:42.579Z,1012.25
2022-09-22T09:04:42.570Z,1012.27
2022-09-22T09:05:42.566Z,1012.28
2022-09-22T09:06:42.545Z,1012.28
2022-09-22T09:07:42.534Z,1012.26
2022-09-22T09:08:42.533Z,1012.25
2022-09-22T09:09:42.517Z,1012.27
2022-09-22T09:10:42.502Z,1012.28
2022-09-22T09:11:42.546Z,1012.23
2022-09-22T09:12:42.483Z,1012.23
2022-09-22T09:13:42.471Z,1012.27
2022-09-22T09:14:42.458Z,1012.31
2022-09-22T09:15:42.460Z,1012.26
2022-09-22T09:16:42.435Z,1012.23
2022-09-22T09:17:42.433Z,1012.28
2022-09-22T09:18:42.422Z,1012.27
2022-09-22T09:19:42.433Z,1012.27
2022-09-22T09:20:42.393Z,1012.21
2022-09-22T09:21:42.382Z,1012.25
2022-09-22T09:22:42.378Z,1012.25
2022-09-22T09:25:42.342Z,1012.21
2022-09-22T09:26:42.353Z,1012.22
2022-09-22T09:27:42.312Z,1012.21
2022-09-22T09:28:42.303Z,1012.21
2022-09-22T09:29:42.298Z,1012.17
2022-09-22T09:30:42.280Z,1012.16
2022-09-22T09:31:42.300Z,1012.19
2022-09-22T09:32:42.266Z,1012.21
2022-09-22T09:33:42.249Z,1012.16
2022-09-22T09:34:42.236Z,1012.17
2022-09-22T09:35:42.236Z,1012.15
2022-09-22T09:36:42.218Z,1012.18
2022-09-22T09:37:42.209Z,1012.18
2022-09-22T09:38:42.195Z,1012.11
2022-09-22T09:39:42.196Z,1012.14
2022-09-22T09:40:42.175Z,1012.18
2022-09-22T09:41:42.178Z,1012.18
2022-09-22T09:42:42.165Z,1012.17
2022-09-22T09:43:42.153Z,1012.17
2022-09-22T09:44:42.187Z,1012.16
2022-09-22T09:45:42.124Z,1012.13
2022-09-22T09:46:42.110Z,1012.21
2022-09-22T09:47:42.099Z,1012.14
2022-09-22T09:48:42.098Z,1012.1
2022-09-22T09:49:42.074Z,1012.08
2022-09-22T09:50:42.058Z,1012.05
2022-09-22T09:51:42.058Z,1012.04
2022-09-22T09:52:42.041Z,1012.02
2022-09-22T09:53:42.039Z,1012.11
2022-09-22T09:54:42.096Z,1012.07
2022-09-22T09:55:42.004Z,1012.01
2022-09-22T09:56:41.997Z,1012.08
2022-09-22T09:57:41.991Z,1012.08
2022-09-22T09:58:41.977Z,1012.06
2022-09-22T09:59:41.964Z,1012.07
2022-09-22T10:00:41.950Z,1012.01
2022-09-22T10:01:41.952Z,1012.06
2022-09-22T10:02:41.959Z,1012.04
2022-09-22T10:03:41.933Z,1011.95
2022-09-22T10:04:41.911Z,1012
2022-09-22T10:05:41.932Z,1012.02
2022-09-22T10:06:41.890Z,1012.02
2022-09-22T10:07:41.878Z,1011.95
2022-09-22T10:08:41.879Z,1012.01
2022-09-22T10:09:41.868Z,1011.96
2022-09-22T10:10:41.902Z,1011.96
2022-09-22T10:11:41.835Z,1011.96
2022-09-22T10:12:41.823Z,1011.96
2022-09-22T10:13:41.812Z,1011.97
2022-09-22T10:14:41.802Z,1011.94
2022-09-22T10:15:41.791Z,1011.92
2022-09-22T10:16:41.780Z,1011.91
2022-09-22T10:17:41.769Z,1011.89
2022-09-22T10:18:41.760Z,1011.85
2022-09-22T10:19:41.747Z,1011.82
2022-09-22T10:20:41.737Z,1011.82
2022-09-22T10:21:41.746Z,1011.74
2022-09-22T10:22:41.728Z,1011.67
2022-09-22T10:23:41.707Z,1011.63
2022-09-22T10:24:41.692Z,1011.68
2022-09-22T10:25:41.677Z,1011.69
2022-09-22T10:26:41.689Z,1011.67
2022-09-22T10:27:41.671Z,1011.71
2022-09-22T10:28:41.650Z,1011.7
2022-09-22T10:29:41.648Z,1011.87
2022-09-22T10:30:41.626Z,1011.88
2022-09-22T10:31:41.626Z,1011.94
2022-09-22T10:32:41.612Z,1011.91
2022-09-22T10:33:41.592Z,1011.88
2022-09-22T10:34:41.584Z,1011.83
2022-09-22T10:35:41.574Z,1011.81
2022-09-22T10:36:41.571Z,1011.89
2022-09-22T10:37:41.555Z,1011.84
2022-09-22T10:38:41.549Z,1011.77
2022-09-22T10:39:41.533Z,1011.61
2022-09-22T10:40:41.521Z,1011.59
2022-09-22T10:41:41.513Z,1011.58
2022-09-22T10:42:41.500Z,1011.6
2022-09-22T10:43:41.509Z,1011.53
2022-09-22T10:44:41.493Z,1011.61
2022-09-22T10:45:41.473Z,1011.71
2022-09-22T10:46:41.456Z,1011.77
2022-09-22T10:47:41.454Z,1011.79
2022-09-22T10:48:41.436Z,1011.77
2022-09-22T10:49:41.426Z,1011.79
2022-09-22T10:50:41.434Z,1011.84
2022-09-22T10:51:41.407Z,1011.81
2022-09-22T10:52:41.395Z,1011.78
2022-09-22T10:53:41.393Z,1011.82
2022-09-22T10:54:41.400Z,1011.78
2022-09-22T10:55:41.363Z,1011.82
2022-09-22T10:56:41.353Z,1011.73
2022-09-22T10:57:41.350Z,1011.78
2022-09-22T10:58:41.334Z,1011.8
2022-09-22T10:59:41.327Z,1011.79
2022-09-22T11:00:41.310Z,1011.77
2022-09-22T11:01:41.307Z,1011.71
2022-09-22T11:02:41.303Z,1011.84
2022-09-22T11:03:41.281Z,1011.8
2022-09-22T11:04:41.276Z,1011.83
2022-09-22T11:05:41.256Z,1011.78
2022-09-22T11:06:41.250Z,1011.83
2022-09-22T11:07:41.253Z,1011.82
2022-09-22T11:08:41.228Z,1011.77
2022-09-22T11:10:41.213Z,1011.86
2022-09-22T11:11:41.200Z,1011.77
2022-09-22T11:12:41.400Z,1011.83
2022-09-22T11:13:41.196Z,1011.77
2022-09-22T11:14:41.187Z,1011.8
2022-09-22T11:15:41.158Z,1011.78
2022-09-22T11:16:41.152Z,1011.76
2022-09-22T11:17:41.137Z,1011.78
2022-09-22T11:18:41.127Z,1011.64
2022-09-22T11:19:41.119Z,1011.8
2022-09-22T11:20:41.110Z,1011.71
2022-09-22T11:21:41.101Z,1011.7
2022-09-22T11:22:41.090Z,1011.74
2022-09-22T11:23:41.082Z,1011.76
2022-09-22T11:24:41.077Z,1011.67
2022-09-22T11:25:41.065Z,1011.69
2022-09-22T11:26:41.053Z,1011.68
2022-09-22T11:27:41.090Z,1011.67
2022-09-22T11:28:41.032Z,1011.65
2022-09-22T11:29:41.048Z,1011.65
2022-09-22T11:30:41.036Z,1011.59
2022-09-22T11:31:41.004Z,1011.64
2022-09-22T11:32:40.993Z,1011.71
2022-09-22T11:33:40.991Z,1011.24
2022-09-22T11:34:40.993Z,1011.19
2022-09-22T11:35:41.025Z,1011.15
2022-09-22T11:36:40.952Z,1011.2
2022-09-22T11:37:40.950Z,1011.11
2022-09-22T11:38:40.934Z,1011.13
2022-09-22T11:39:40.928Z,1011.17
2022-09-22T11:40:40.912Z,1011.13
2022-09-22T11:41:40.906Z,1011.13
2022-09-22T11:42:40.901Z,1011.11
2022-09-22T11:43:40.883Z,1011.14
2022-09-22T11:44:40.873Z,1011.2
2022-09-22T11:45:40.859Z,1011.11
2022-09-22T11:46:40.859Z,1011.08
2022-09-22T11:47:40.843Z,1011.14
2022-09-22T11:48:40.826Z,1011.08
2022-09-22T11:49:40.820Z,1011.06
2022-09-22T11:50:40.815Z,1011.08
2022-09-22T11:51:40.793Z,1011.04
2022-09-22T11:52:40.785Z,1011.1
2022-09-22T11:53:40.843Z,1011.07
2022-09-22T11:54:40.763Z,1011.13
2022-09-22T11:55:40.761Z,1011.12
2022-09-22T11:56:40.742Z,1011.15
2022-09-22T11:57:40.741Z,1011.1
2022-09-22T11:58:40.720Z,1011.13
2022-09-22T11:59:40.711Z,1011.09
2022-09-22T12:00:40.789Z,1011.11
2022-09-22T12:01:40.722Z,1011.17
2022-09-22T12:02:40.687Z,1011.05
2022-09-22T12:03:40.680Z,1011.07
2022-09-22T12:04:40.655Z,1011.04
2022-09-22T12:05:40.651Z,1010.99
2022-09-22T12:06:40.633Z,1010.98
2022-09-22T12:07:40.625Z,1010.96
2022-09-22T12:08:40.610Z,1010.91
2022-09-22T12:09:40.602Z,1010.93
2022-09-22T12:10:40.595Z,1010.95